»·PEaware :: AAL639 KDEN-KPHX

AAL639 :: KDEN-KPHX

FLIGHT INFORMATION

Flight Status: Arrived
Operator:
American Airlines
More flights by this operator :: More flights under this callsign
Pilot: Tamas B. (15764)
Aircraft: BOEING 737-800
(B738)
More flights by this aircraft type
Origin: KDEN Denver Intl
United States
Destination: KPHX Phoenix Sky Harbor Intl
United States
More flights between these airports :: More routes between these airports
Route: SOLAR3 DAAYE GUP EAGUL6
File this flight plan on PilotEdge
Remarks: PBN / A1B1C1D1S1S2 DOF / 171010 REG / N800NN EET / KZAB0043 OPR / AAL RMK / TCAS SIMBRIEF
Altitude:
(Current/Filed)
40,000ft
Speed:
(Current/Filed)
447kts
Departed: 10-Oct-17 09:45 AM
Arrived: 10-Oct-17 11:24 AM
Distance/Time
Traveled:
522nm/1:39
Distance/Time
To Go:
Arrived

Flight Plot

Page will automatically refresh every two minutes.


Map Options




Map Legend


Flown Route
Filed Route
Departure Airport
Arrival Airport
Navaid (VOR, NDB)
Fix

Horizontal Profiles

Position Reports

Time Latitude Longitude Heading Altitude Ground
Speed
10-Oct-17 09:00 39.853325 -104.670778 14 5442ft 0kts
10-Oct-17 09:01 39.853325 -104.670778 14 5442ft 0kts
10-Oct-17 09:02 39.853325 -104.670778 14 5442ft 0kts
10-Oct-17 09:03 39.853325 -104.670778 14 5442ft 0kts
10-Oct-17 09:04 39.853325 -104.670778 14 5442ft 0kts
10-Oct-17 09:05 39.853325 -104.670778 14 5442ft 0kts
10-Oct-17 09:06 39.853325 -104.670778 14 5442ft 0kts
10-Oct-17 09:07 39.853325 -104.670778 14 5442ft 0kts
10-Oct-17 09:08 39.853325 -104.670778 14 5442ft 0kts
10-Oct-17 09:09 39.853325 -104.670778 14 5442ft 0kts
10-Oct-17 09:10 39.853325 -104.670778 14 5442ft 0kts
10-Oct-17 09:11 39.853325 -104.670778 14 5442ft 0kts
10-Oct-17 09:12 39.853325 -104.670778 14 5442ft 0kts
10-Oct-17 09:13 39.853325 -104.670778 14 5442ft 0kts
10-Oct-17 09:14 39.853325 -104.670778 14 5442ft 0kts
10-Oct-17 09:15 39.853325 -104.670778 14 5442ft 0kts
10-Oct-17 09:16 39.853325 -104.670778 14 5442ft 0kts
10-Oct-17 09:17 39.853325 -104.670778 14 5442ft 0kts
10-Oct-17 09:18 39.853325 -104.670778 14 5442ft 0kts
10-Oct-17 09:19 39.853325 -104.670778 14 5442ft 0kts
10-Oct-17 09:20 39.853325 -104.670778 14 5442ft 0kts
10-Oct-17 09:21 39.853325 -104.670778 14 5442ft 0kts
10-Oct-17 09:22 39.853325 -104.670778 14 5442ft 0kts
10-Oct-17 09:23 39.853325 -104.670778 14 5442ft 0kts
10-Oct-17 09:24 39.853325 -104.670778 14 5442ft 0kts
10-Oct-17 09:25 39.853325 -104.670778 14 5442ft 0kts
10-Oct-17 09:26 39.853325 -104.670778 14 5442ft 0kts
10-Oct-17 09:27 39.853325 -104.670778 14 5442ft 0kts
10-Oct-17 09:28 39.853325 -104.670778 14 5442ft 0kts
10-Oct-17 09:29 39.853325 -104.670778 14 5442ft 0kts
10-Oct-17 09:30 39.853325 -104.670778 14 5442ft 0kts
10-Oct-17 09:31 39.853325 -104.670778 14 5442ft 0kts
10-Oct-17 09:32 39.853027 -104.670885 24 5442ft 2kts
10-Oct-17 09:33 39.852749 -104.671437 88 5442ft 0kts
10-Oct-17 09:34 39.852751 -104.671507 90 5442ft 0kts
10-Oct-17 09:35 39.852751 -104.671506 90 5442ft 0kts
10-Oct-17 09:36 39.852751 -104.671506 90 5442ft 0kts
10-Oct-17 09:37 39.852751 -104.671506 90 5442ft 0kts
10-Oct-17 09:38 39.852751 -104.671506 90 5442ft 0kts
10-Oct-17 09:39 39.852751 -104.671506 90 5442ft 0kts
10-Oct-17 09:40 39.852746 -104.671174 91 5442ft 6kts
10-Oct-17 09:41 39.852914 -104.665057 80 5441ft 14kts
10-Oct-17 09:42 39.854352 -104.662241 0 5441ft 12kts
10-Oct-17 09:43 39.859535 -104.662192 0 5442ft 25kts
10-Oct-17 09:44 39.861004 -104.661678 78 5441ft 0kts
10-Oct-17 09:45 39.861004 -104.661678 78 5441ft 0kts
10-Oct-17 09:46 39.861004 -104.661678 78 5441ft 0kts
10-Oct-17 09:47 39.861004 -104.661678 78 5441ft 0kts
10-Oct-17 09:48 39.860669 -104.660055 161 5442ft 0kts
10-Oct-17 09:49 39.843752 -104.660231 186 5446ft 150kts
10-Oct-17 09:50 39.793818 -104.666630 198 6810ft 230kts
10-Oct-17 09:51 39.722480 -104.691786 187 9367ft 286kts
10-Oct-17 09:52 39.642300 -104.697860 184 10117ft 305kts
10-Oct-17 09:53 39.552499 -104.704610 183 13050ft 335kts
10-Oct-17 09:54 39.458116 -104.710887 184 16139ft 357kts
10-Oct-17 09:55 39.364128 -104.748967 204 19503ft 369kts
10-Oct-17 09:56 39.282987 -104.823919 235 21400ft 375kts
10-Oct-17 09:58 39.221909 -104.928091 236 21397ft 368kts
10-Oct-17 09:59 39.160897 -105.034190 234 24197ft 369kts
10-Oct-17 10:00 39.072454 -105.106281 210 26369ft 390kts
10-Oct-17 10:01 38.975941 -105.168893 210 28331ft 400kts
10-Oct-17 10:02 38.877461 -105.232048 210 30116ft 410kts
10-Oct-17 10:03 38.776537 -105.296514 210 31724ft 419kts
10-Oct-17 10:04 38.672842 -105.362536 210 33190ft 429kts
10-Oct-17 10:05 38.566223 -105.430222 211 34549ft 437kts
10-Oct-17 10:06 38.457512 -105.499012 210 35756ft 446kts
10-Oct-17 10:07 38.346274 -105.569152 210 36820ft 456kts
10-Oct-17 10:08 38.232600 -105.640576 210 37745ft 465kts
10-Oct-17 10:09 38.117837 -105.712427 210 38529ft 473kts
10-Oct-17 10:10 38.004253 -105.792306 224 39070ft 470kts
10-Oct-17 10:11 37.911292 -105.907091 228 39515ft 473kts
10-Oct-17 10:12 37.821928 -106.020749 228 39822ft 476kts
10-Oct-17 10:13 37.729967 -106.137519 228 40021ft 478kts
10-Oct-17 10:14 37.636381 -106.255921 228 40150ft 480kts
10-Oct-17 10:15 37.543004 -106.373616 228 40226ft 481kts
10-Oct-17 10:16 37.452908 -106.486654 228 40422ft 431kts
10-Oct-17 10:17 37.374202 -106.585211 228 40455ft 397kts
10-Oct-17 10:18 37.297716 -106.680712 228 40471ft 413kts
10-Oct-17 10:19 37.216007 -106.782320 228 40455ft 418kts
10-Oct-17 10:20 37.134699 -106.883172 227 40439ft 417kts
10-Oct-17 10:21 37.053327 -106.983759 226 40438ft 416kts
10-Oct-17 10:22 36.971577 -107.084433 226 40437ft 417kts
10-Oct-17 10:23 36.891428 -107.182822 226 40437ft 417kts
10-Oct-17 10:24 36.809208 -107.283468 226 40438ft 417kts
10-Oct-17 10:25 36.727117 -107.383641 226 40434ft 417kts
10-Oct-17 10:26 36.645043 -107.483478 226 40429ft 417kts
10-Oct-17 10:27 36.562618 -107.583427 226 40424ft 417kts
10-Oct-17 10:28 36.480081 -107.683191 225 40427ft 418kts
10-Oct-17 10:29 36.397866 -107.782269 225 40422ft 417kts
10-Oct-17 10:30 36.315260 -107.881501 225 40421ft 417kts
10-Oct-17 10:30 36.246551 -107.963805 225 40420ft 417kts
10-Oct-17 10:32 36.149942 -108.079172 225 40419ft 417kts
10-Oct-17 10:33 36.066741 -108.178195 225 40415ft 417kts
10-Oct-17 10:33 35.997363 -108.260532 225 40409ft 417kts
10-Oct-17 10:35 35.900915 -108.374651 225 40407ft 417kts
10-Oct-17 10:36 35.840818 -108.445540 225 40409ft 417kts
10-Oct-17 10:36 35.771448 -108.527182 225 40409ft 417kts
10-Oct-17 10:38 35.674223 -108.641262 225 40408ft 417kts
10-Oct-17 10:38 35.608171 -108.718535 225 40413ft 418kts
10-Oct-17 10:39 35.524767 -108.815845 225 40413ft 418kts
10-Oct-17 10:40 35.442830 -108.915621 228 40413ft 417kts
10-Oct-17 10:41 35.363900 -109.017918 228 40411ft 417kts
10-Oct-17 10:42 35.284857 -109.120010 228 40410ft 417kts
10-Oct-17 10:43 35.205811 -109.221800 228 40409ft 417kts
10-Oct-17 10:44 35.126552 -109.323567 228 40089ft 418kts
10-Oct-17 10:45 35.047417 -109.424854 228 39377ft 416kts
10-Oct-17 10:46 34.968024 -109.526165 228 38675ft 420kts
10-Oct-17 10:47 34.888021 -109.627955 228 37973ft 423kts
10-Oct-17 10:48 34.808919 -109.728491 228 37317ft 424kts
10-Oct-17 10:49 34.728741 -109.830501 228 36654ft 424kts
10-Oct-17 10:50 34.672805 -109.952073 244 35989ft 420kts
10-Oct-17 10:51 34.589779 -110.050859 226 35335ft 426kts
10-Oct-17 10:52 34.506608 -110.152127 233 34854ft 425kts
10-Oct-17 10:53 34.447330 -110.273926 237 34414ft 425kts
10-Oct-17 10:54 34.400826 -110.401272 262 33962ft 423kts
10-Oct-17 10:55 34.386693 -110.541959 263 33651ft 424kts
10-Oct-17 10:56 34.371312 -110.675819 260 32328ft 395kts
10-Oct-17 10:57 34.348115 -110.794898 239 30099ft 368kts
10-Oct-17 10:58 34.281461 -110.888815 228 27938ft 365kts
10-Oct-17 10:59 34.211503 -110.979905 227 25779ft 365kts
10-Oct-17 11:00 34.150332 -111.058831 227 23721ft 349kts
10-Oct-17 11:01 34.085186 -111.142600 226 21883ft 346kts
10-Oct-17 11:02 34.021262 -111.224572 226 20339ft 334kts
10-Oct-17 11:03 33.958370 -111.305049 225 18815ft 329kts
10-Oct-17 11:04 33.899468 -111.380278 225 17297ft 296kts
10-Oct-17 11:05 33.852146 -111.459259 235 15838ft 293kts
10-Oct-17 11:06 33.809452 -111.539969 236 14440ft 285kts
10-Oct-17 11:07 33.767532 -111.618913 235 13874ft 286kts
10-Oct-17 11:08 33.725612 -111.697534 235 12575ft 280kts
10-Oct-17 11:09 33.685432 -111.773099 235 11853ft 252kts
10-Oct-17 11:10 33.648749 -111.842071 236 10753ft 244kts
10-Oct-17 11:11 33.613195 -111.908918 237 9716ft 234kts
10-Oct-17 11:12 33.578802 -111.972996 237 8665ft 231kts
10-Oct-17 11:13 33.544420 -112.036200 239 7632ft 228kts
10-Oct-17 11:14 33.526493 -112.105915 268 5938ft 236kts
10-Oct-17 11:15 33.523322 -112.180482 268 4031ft 217kts
10-Oct-17 11:16 33.519807 -112.252254 268 3950ft 213kts
10-Oct-17 11:17 33.516091 -112.318253 268 3005ft 184kts
10-Oct-17 11:18 33.511919 -112.378700 256 3013ft 189kts
10-Oct-17 11:19 33.467848 -112.391292 171 3016ft 175kts
10-Oct-17 11:20 33.439856 -112.360501 87 3032ft 151kts
10-Oct-17 11:21 33.440479 -112.309032 87 3037ft 160kts
10-Oct-17 11:22 33.440716 -112.257729 88 3009ft 148kts
10-Oct-17 11:23 33.440832 -112.208119 88 3015ft 148kts
10-Oct-17 11:24 33.440885 -112.159511 89 3010ft 146kts
10-Oct-17 11:25 33.440890 -112.112288 89 2524ft 135kts
10-Oct-17 11:26 33.440944 -112.067249 88 1847ft 132kts
10-Oct-17 11:27 33.440838 -112.023354 88 1155ft 129kts
10-Oct-17 11:28 33.440040 -112.006887 128 1142ft 0kts
10-Oct-17 11:29 33.440040 -112.006887 128 1142ft 0kts
10-Oct-17 11:30 33.439839 -112.006458 110 1142ft 9kts
10-Oct-17 11:31 33.439056 -112.003644 91 1142ft 9kts
10-Oct-17 11:32 33.439065 -112.001326 88 1142ft 16kts
10-Oct-17 11:33 33.438668 -111.998047 129 1142ft 7kts
10-Oct-17 11:34 33.438180 -111.997363 130 1142ft 0kts
10-Oct-17 11:35 33.438180 -111.997363 130 1142ft 0kts
10-Oct-17 11:36 33.438180 -111.997363 130 1142ft 0kts
10-Oct-17 11:37 33.438180 -111.997363 130 1142ft 0kts

Navigation Log

Ident Type
1. KDEN Airport
2. GUP Navaid
3. SLIDR Fix
4. PAYSO Fix
5. EAGUL Fix
6. PICHR Fix
7. HOMRR Fix
8. QUENY Fix
9. HINEY Fix
10. BASBL Fix
11. KPHX Airport